createdAt,value
2022-09-22T00:00:54.224Z,99.99
2022-09-22T00:01:54.176Z,99.99
2022-09-22T00:02:54.081Z,99.99
2022-09-22T00:03:54.037Z,99.99
2022-09-22T00:04:53.985Z,99.99
2022-09-22T00:05:53.941Z,99.99
2022-09-22T00:06:53.892Z,99.99
2022-09-22T00:07:53.848Z,99.99
2022-09-22T00:08:53.801Z,99.99
2022-09-22T00:09:53.752Z,99.99
2022-09-22T00:10:53.702Z,99.99
2022-09-22T00:11:53.655Z,99.99
2022-09-22T00:12:53.607Z,99.99
2022-09-22T00:13:53.562Z,99.99
2022-09-22T00:14:53.538Z,99.99
2022-09-22T00:15:53.549Z,99.99
2022-09-22T00:16:53.421Z,99.99
2022-09-22T00:17:53.395Z,99.99
2022-09-22T00:18:53.323Z,99.99
2022-09-22T00:19:53.280Z,99.99
2022-09-22T00:20:53.230Z,99.99
2022-09-22T00:21:53.186Z,99.99
2022-09-22T00:22:53.135Z,99.99
2022-09-22T00:23:53.089Z,99.99
2022-09-22T00:24:53.041Z,99.99
2022-09-22T00:25:52.995Z,99.99
2022-09-22T00:26:52.946Z,99.99
2022-09-22T00:27:52.900Z,99.99
2022-09-22T00:28:52.876Z,99.99
2022-09-22T00:29:52.807Z,99.99
2022-09-22T00:30:52.763Z,99.99
2022-09-22T00:31:52.765Z,99.99
2022-09-22T00:32:52.664Z,99.99
2022-09-22T00:33:52.636Z,99.99
2022-09-22T00:34:52.569Z,99.99
2022-09-22T00:35:52.524Z,99.99
2022-09-22T00:36:52.473Z,99.99
2022-09-22T00:37:52.427Z,99.99
2022-09-22T00:38:52.378Z,99.99
2022-09-22T00:39:52.335Z,99.99
2022-09-22T00:40:52.286Z,99.99
2022-09-22T00:41:52.240Z,99.99
2022-09-22T00:42:52.189Z,99.99
2022-09-22T00:43:52.147Z,99.99
2022-09-22T00:44:52.098Z,99.99
2022-09-22T00:45:52.052Z,99.99
2022-09-22T00:46:52.098Z,99.99
2022-09-22T00:47:51.954Z,99.99
2022-09-22T00:48:51.904Z,99.99
2022-09-22T00:49:51.881Z,99.99
2022-09-22T00:50:51.810Z,99.99
2022-09-22T00:51:51.766Z,99.99
2022-09-22T00:52:51.719Z,99.99
2022-09-22T00:53:51.671Z,99.99
2022-09-22T00:54:51.623Z,99.99
2022-09-22T00:55:51.575Z,99.99
2022-09-22T00:56:51.528Z,99.99
2022-09-22T00:57:51.489Z,99.99
2022-09-22T00:58:51.432Z,99.99
2022-09-22T00:59:51.388Z,99.99
2022-09-22T01:00:51.436Z,99.99
2022-09-22T01:01:51.330Z,99.99
2022-09-22T01:02:51.244Z,99.99
2022-09-22T01:03:51.200Z,99.99
2022-09-22T01:04:51.148Z,99.99
2022-09-22T01:05:51.124Z,99.99
2022-09-22T01:06:51.055Z,99.99
2022-09-22T01:07:51.009Z,99.99
2022-09-22T01:11:17.565Z,99.99
2022-09-22T01:27:27.880Z,99.99
2022-09-22T01:28:27.818Z,99.99
2022-09-22T01:29:27.766Z,99.99
2022-09-22T01:30:27.923Z,99.99
2022-09-22T01:31:27.696Z,99.99
2022-09-22T01:32:27.624Z,99.99
2022-09-22T01:37:37.372Z,99.99
2022-09-22T01:38:37.327Z,99.99
2022-09-22T01:39:37.272Z,99.99
2022-09-22T01:40:37.326Z,99.99
2022-09-22T01:41:37.179Z,99.99
2022-09-22T01:42:37.258Z,99.99
2022-09-22T01:43:37.076Z,99.99
2022-09-22T01:44:37.030Z,99.99
2022-09-22T01:45:36.978Z,99.99
2022-09-22T01:46:36.971Z,99.99
2022-09-22T01:47:36.881Z,99.99
2022-09-22T01:48:36.837Z,99.99
2022-09-22T01:49:36.789Z,99.99
2022-09-22T01:50:36.737Z,99.99
2022-09-22T01:51:36.686Z,99.99
2022-09-22T01:52:36.637Z,99.99
2022-09-22T01:53:36.587Z,99.99
2022-09-22T01:54:36.542Z,99.99
2022-09-22T01:55:36.494Z,99.99
2022-09-22T01:56:36.442Z,99.99
2022-09-22T01:57:36.390Z,99.99
2022-09-22T01:58:36.361Z,99.99
2022-09-22T01:59:36.293Z,99.99
2022-09-22T02:00:36.245Z,99.99
2022-09-22T02:01:36.327Z,99.99
2022-09-22T02:02:36.340Z,99.99
2022-09-22T02:03:36.096Z,99.99
2022-09-22T02:04:36.048Z,99.99
2022-09-22T02:05:35.998Z,99.99
2022-09-22T02:06:35.950Z,99.99
2022-09-22T02:07:35.901Z,99.99
2022-09-22T02:08:35.853Z,99.99
2022-09-22T02:09:35.805Z,99.99
2022-09-22T02:10:35.757Z,99.99
2022-09-22T02:11:35.703Z,99.99
2022-09-22T02:12:35.656Z,99.99
2022-09-22T02:13:35.606Z,99.99
2022-09-22T02:14:35.573Z,99.99
2022-09-22T02:15:35.522Z,99.99
2022-09-22T02:16:35.459Z,99.99
2022-09-22T02:17:35.669Z,99.99
2022-09-22T02:18:35.360Z,99.99
2022-09-22T02:19:35.310Z,99.99
2022-09-22T02:20:35.263Z,99.99
2022-09-22T02:21:35.216Z,99.99
2022-09-22T02:22:35.169Z,99.99
2022-09-22T02:23:35.120Z,99.99
2022-09-22T02:24:35.072Z,99.99
2022-09-22T02:25:35.017Z,99.99
2022-09-22T02:26:34.968Z,99.99
2022-09-22T02:27:34.917Z,99.99
2022-09-22T02:28:34.873Z,99.99
2022-09-22T02:29:34.819Z,99.99
2022-09-22T02:30:34.789Z,99.99
2022-09-22T02:31:34.825Z,99.99
2022-09-22T02:32:34.676Z,99.99
2022-09-22T02:33:38.088Z,99.99
2022-09-22T02:34:34.577Z,99.99
2022-09-22T02:35:34.528Z,99.99
2022-09-22T02:36:34.478Z,99.99
2022-09-22T02:37:34.427Z,99.99
2022-09-22T02:38:34.376Z,99.99
2022-09-22T02:39:34.328Z,99.99
2022-09-22T02:40:34.383Z,99.99
2022-09-22T02:41:34.228Z,99.99
2022-09-22T02:42:34.182Z,99.99
2022-09-22T02:43:34.133Z,99.99
2022-09-22T02:44:34.082Z,99.99
2022-09-22T02:45:34.031Z,99.99
2022-09-22T02:46:34.105Z,99.99
2022-09-22T02:47:33.931Z,99.99
2022-09-22T02:48:33.887Z,99.99
2022-09-22T02:49:33.836Z,99.99
2022-09-22T02:50:33.788Z,99.99
2022-09-22T02:51:33.739Z,99.99
2022-09-22T02:52:33.689Z,99.99
2022-09-22T02:53:33.638Z,99.99
2022-09-22T02:54:33.590Z,99.99
2022-09-22T02:55:33.539Z,99.99
2022-09-22T02:56:33.549Z,99.99
2022-09-22T02:57:33.440Z,99.99
2022-09-22T02:58:33.393Z,99.99
2022-09-22T02:59:33.342Z,99.99
2022-09-22T03:00:33.293Z,99.99
2022-09-22T03:01:33.316Z,99.99
2022-09-22T03:02:33.213Z,99.99
2022-09-22T03:03:33.144Z,99.99
2022-09-22T03:04:33.199Z,99.99
2022-09-22T03:05:33.046Z,99.99
2022-09-22T03:06:32.998Z,99.99
2022-09-22T03:07:32.947Z,99.99
2022-09-22T03:08:32.901Z,99.99
2022-09-22T03:09:32.847Z,99.99
2022-09-22T03:10:32.801Z,99.99
2022-09-22T03:11:32.757Z,99.99
2022-09-22T03:12:32.701Z,99.99
2022-09-22T03:13:32.652Z,99.99
2022-09-22T03:14:32.601Z,99.99
2022-09-22T03:15:32.600Z,99.99
2022-09-22T03:16:32.504Z,99.99
2022-09-22T03:17:32.457Z,99.99
2022-09-22T03:18:32.422Z,99.99
2022-09-22T03:19:32.354Z,99.99
2022-09-22T03:20:32.311Z,99.99
2022-09-22T03:21:32.256Z,99.99
2022-09-22T03:22:32.208Z,99.99
2022-09-22T03:23:32.157Z,99.99
2022-09-22T03:24:32.109Z,99.99
2022-09-22T03:25:32.061Z,99.99
2022-09-22T03:26:32.008Z,99.99
2022-09-22T03:27:31.967Z,99.99
2022-09-22T03:28:31.912Z,99.99
2022-09-22T03:29:31.862Z,99.99
2022-09-22T03:30:31.897Z,99.99
2022-09-22T03:31:31.761Z,99.99
2022-09-22T03:32:31.716Z,99.99
2022-09-22T03:33:31.663Z,99.99
2022-09-22T03:34:31.643Z,99.99
2022-09-22T03:35:31.563Z,99.99
2022-09-22T03:36:31.515Z,99.99
2022-09-22T03:37:31.464Z,99.99
2022-09-22T03:38:31.416Z,99.99
2022-09-22T03:39:31.365Z,99.99
2022-09-22T03:40:31.353Z,99.99
2022-09-22T03:41:31.267Z,99.99
2022-09-22T03:42:31.216Z,99.99
2022-09-22T03:43:31.168Z,99.99
2022-09-22T03:44:31.123Z,99.99
2022-09-22T03:45:31.068Z,99.99
2022-09-22T03:46:31.182Z,99.99
2022-09-22T03:47:30.969Z,99.99
2022-09-22T03:48:30.922Z,99.99
2022-09-22T03:49:30.868Z,99.99
2022-09-22T03:50:30.841Z,99.99
2022-09-22T03:51:30.772Z,99.99
2022-09-22T03:52:30.725Z,99.99
2022-09-22T03:53:30.676Z,99.99
2022-09-22T03:54:30.623Z,99.99
2022-09-22T03:55:30.573Z,99.99
2022-09-22T03:56:30.526Z,99.99
2022-09-22T03:57:30.480Z,99.99
2022-09-22T03:58:30.425Z,99.99
2022-09-22T03:59:30.377Z,99.99
2022-09-22T04:00:30.326Z,99.99
2022-09-22T04:01:30.462Z,99.99
2022-09-22T04:02:30.260Z,99.99
2022-09-22T04:03:30.179Z,99.99
2022-09-22T04:04:30.130Z,99.99
2022-09-22T04:05:30.077Z,99.99
2022-09-22T04:06:30.049Z,99.99
2022-09-22T04:07:29.978Z,99.99
2022-09-22T04:08:29.932Z,99.99
2022-09-22T04:09:29.879Z,99.99
2022-09-22T04:10:29.830Z,99.99
2022-09-22T04:11:29.780Z,99.99
2022-09-22T04:12:29.732Z,99.99
2022-09-22T04:13:29.682Z,99.99
2022-09-22T04:14:29.632Z,99.99
2022-09-22T04:15:29.582Z,99.99
2022-09-22T04:16:29.597Z,99.99
2022-09-22T04:17:29.483Z,99.99
2022-09-22T04:18:29.434Z,99.99
2022-09-22T04:19:29.385Z,99.99
2022-09-22T04:20:29.337Z,99.99
2022-09-22T04:21:29.285Z,99.99
2022-09-22T04:22:29.257Z,99.99
2022-09-22T04:23:29.186Z,99.99
2022-09-22T04:24:29.138Z,99.99
2022-09-22T04:25:29.088Z,99.99
2022-09-22T04:26:29.044Z,99.99
2022-09-22T04:27:28.986Z,99.99
2022-09-22T04:28:28.940Z,99.99
2022-09-22T04:29:28.889Z,99.99
2022-09-22T04:30:28.932Z,99.99
2022-09-22T04:31:28.792Z,99.99
2022-09-22T04:32:28.743Z,99.99
2022-09-22T04:33:28.691Z,99.99
2022-09-22T04:34:28.657Z,99.99
2022-09-22T04:35:28.593Z,99.99
2022-09-22T04:36:28.545Z,99.99
2022-09-22T04:37:28.493Z,99.99
2022-09-22T04:38:28.460Z,99.99
2022-09-22T04:39:28.392Z,99.99
2022-09-22T04:40:28.445Z,99.99
2022-09-22T04:41:28.299Z,99.99
2022-09-22T04:42:28.246Z,99.99
2022-09-22T04:43:28.197Z,99.99
2022-09-22T04:44:28.152Z,99.99
2022-09-22T04:45:28.094Z,99.99
2022-09-22T04:46:28.090Z,99.99
2022-09-22T04:47:27.996Z,99.99
2022-09-22T04:48:27.946Z,99.99
2022-09-22T04:49:27.895Z,99.99
2022-09-22T04:50:27.846Z,99.99
2022-09-22T04:51:27.801Z,99.99
2022-09-22T04:52:27.747Z,99.99
2022-09-22T04:53:27.699Z,99.99
2022-09-22T04:54:27.666Z,99.99
2022-09-22T04:55:27.606Z,99.99
2022-09-22T04:56:27.559Z,99.99
2022-09-22T04:57:27.502Z,99.99
2022-09-22T04:58:27.449Z,99.99
2022-09-22T04:59:27.397Z,99.99
2022-09-22T05:00:27.355Z,99.99
2022-09-22T05:01:27.389Z,99.99
2022-09-22T05:02:27.251Z,99.99
2022-09-22T05:03:27.280Z,99.99
2022-09-22T05:04:27.159Z,99.99
2022-09-22T05:05:27.101Z,99.99
2022-09-22T05:06:27.055Z,99.99
2022-09-22T05:07:27.010Z,99.99
2022-09-22T05:08:26.957Z,99.99
2022-09-22T05:09:26.905Z,99.99
2022-09-22T05:10:26.872Z,99.99
2022-09-22T05:11:26.801Z,99.99
2022-09-22T05:12:26.755Z,99.99
2022-09-22T05:13:26.707Z,99.99
2022-09-22T05:14:26.659Z,99.99
2022-09-22T05:15:26.604Z,99.99
2022-09-22T05:16:26.672Z,99.99
2022-09-22T05:17:26.505Z,99.99
2022-09-22T05:18:26.457Z,99.99
2022-09-22T05:19:26.406Z,99.99
2022-09-22T05:20:26.357Z,99.99
2022-09-22T05:21:26.303Z,99.99
2022-09-22T05:22:26.256Z,99.99
2022-09-22T05:23:26.207Z,99.99
2022-09-22T05:24:26.156Z,99.99
2022-09-22T05:25:26.106Z,99.99
2022-09-22T05:26:26.077Z,99.99
2022-09-22T05:27:26.009Z,99.99
2022-09-22T05:28:25.958Z,99.99
2022-09-22T05:29:28.011Z,99.99
2022-09-22T05:30:25.860Z,99.99
2022-09-22T05:31:25.863Z,99.99
2022-09-22T05:32:25.759Z,99.99
2022-09-22T05:33:25.708Z,99.99
2022-09-22T05:34:25.660Z,99.99
2022-09-22T05:35:25.606Z,99.99
2022-09-22T05:36:25.560Z,99.99
2022-09-22T05:37:25.519Z,99.99
2022-09-22T05:38:25.460Z,99.99
2022-09-22T05:39:25.411Z,99.99
2022-09-22T05:40:25.395Z,99.99
2022-09-22T05:41:25.310Z,99.99
2022-09-22T05:42:25.277Z,99.99
2022-09-22T05:43:25.211Z,99.99
2022-09-22T05:44:25.165Z,99.99
2022-09-22T05:45:25.193Z,99.99
2022-09-22T05:46:25.062Z,99.99
2022-09-22T05:47:25.011Z,99.99
2022-09-22T05:48:28.877Z,99.99
2022-09-22T05:49:24.912Z,99.99
2022-09-22T05:50:24.863Z,99.99
2022-09-22T05:51:24.812Z,99.99
2022-09-22T05:52:24.762Z,99.99
2022-09-22T05:53:24.717Z,99.99
2022-09-22T05:54:24.666Z,99.99
2022-09-22T05:55:24.615Z,99.99
2022-09-22T05:56:24.563Z,99.99
2022-09-22T05:57:24.517Z,99.99
2022-09-22T05:58:24.484Z,99.99
2022-09-22T05:59:24.417Z,99.99
2022-09-22T06:00:24.366Z,99.99
2022-09-22T06:01:24.397Z,99.99
2022-09-22T06:02:26.466Z,99.99
2022-09-22T06:03:24.220Z,99.99
2022-09-22T06:04:24.166Z,99.99
2022-09-22T06:05:24.119Z,99.99
2022-09-22T06:06:24.071Z,99.99
2022-09-22T06:07:24.020Z,99.99
2022-09-22T06:08:23.969Z,99.99
2022-09-22T06:09:23.924Z,99.99
2022-09-22T06:10:23.874Z,99.99
2022-09-22T06:11:23.820Z,99.99
2022-09-22T06:12:23.772Z,99.99
2022-09-22T06:13:23.721Z,99.99
2022-09-22T06:14:23.688Z,99.99
2022-09-22T06:15:23.626Z,99.99
2022-09-22T06:16:23.623Z,99.99
2022-09-22T06:17:23.526Z,99.99
2022-09-22T06:18:24.795Z,99.99
2022-09-22T06:19:23.425Z,99.99
2022-09-22T06:20:23.374Z,99.99
2022-09-22T06:21:23.328Z,99.99
2022-09-22T06:22:23.273Z,99.99
2022-09-22T06:23:23.225Z,99.99
2022-09-22T06:24:23.175Z,99.99
2022-09-22T06:25:23.127Z,99.99
2022-09-22T06:26:23.077Z,99.99
2022-09-22T06:27:23.032Z,99.99
2022-09-22T06:28:22.977Z,99.99
2022-09-22T06:29:22.928Z,99.99
2022-09-22T06:30:22.896Z,99.99
2022-09-22T06:31:22.889Z,99.99
2022-09-22T06:32:22.778Z,99.99
2022-09-22T06:33:22.732Z,99.99
2022-09-22T06:34:22.685Z,99.99
2022-09-22T06:35:22.634Z,99.99
2022-09-22T06:36:22.582Z,99.99
2022-09-22T06:37:22.536Z,99.99
2022-09-22T06:38:22.492Z,99.99
2022-09-22T06:39:22.436Z,99.99
2022-09-22T06:40:22.454Z,99.99
2022-09-22T06:41:22.338Z,99.99
2022-09-22T06:42:22.284Z,99.99
2022-09-22T06:43:22.239Z,99.99
2022-09-22T06:44:22.186Z,99.99
2022-09-22T06:45:22.139Z,99.99
2022-09-22T06:46:22.133Z,99.99
2022-09-22T06:47:22.039Z,99.99
2022-09-22T06:48:21.995Z,99.99
2022-09-22T06:49:21.942Z,99.99
2022-09-22T06:50:21.889Z,99.99
2022-09-22T06:51:21.841Z,99.99
2022-09-22T06:52:21.791Z,99.99
2022-09-22T06:53:25.026Z,99.99
2022-09-22T06:54:24.781Z,99.99
2022-09-22T06:55:21.651Z,99.99
2022-09-22T06:56:21.595Z,99.99
2022-09-22T06:57:21.550Z,99.99
2022-09-22T06:58:21.499Z,99.99
2022-09-22T06:59:21.724Z,99.99
2022-09-22T07:00:21.402Z,99.99
2022-09-22T07:01:21.467Z,99.99
2022-09-22T07:02:21.354Z,99.99
2022-09-22T07:03:21.254Z,99.99
2022-09-22T07:04:21.206Z,99.99
2022-09-22T07:05:21.160Z,99.99
2022-09-22T07:06:21.107Z,99.99
2022-09-22T07:07:21.069Z,99.99
2022-09-22T07:08:21.014Z,99.99
2022-09-22T07:09:20.962Z,99.99
2022-09-22T07:10:20.916Z,99.99
2022-09-22T07:11:20.862Z,99.99
2022-09-22T07:12:20.812Z,99.99
2022-09-22T07:13:20.767Z,99.99
2022-09-22T07:14:20.721Z,99.99
2022-09-22T07:15:20.670Z,99.99
2022-09-22T07:16:20.696Z,99.99
2022-09-22T07:17:20.572Z,99.99
2022-09-22T07:18:20.541Z,99.99
2022-09-22T07:19:20.474Z,99.99
2022-09-22T07:20:20.426Z,99.99
2022-09-22T07:21:20.376Z,99.99
2022-09-22T07:22:20.326Z,99.99
2022-09-22T07:23:20.279Z,99.99
2022-09-22T07:24:20.229Z,99.99
2022-09-22T07:25:20.187Z,99.99
2022-09-22T07:26:20.134Z,99.99
2022-09-22T07:27:20.087Z,99.99
2022-09-22T07:28:20.035Z,99.99
2022-09-22T07:29:19.992Z,99.99
2022-09-22T07:30:19.941Z,99.99
2022-09-22T07:31:20.135Z,99.99
2022-09-22T07:32:19.848Z,99.99
2022-09-22T07:33:19.802Z,99.99
2022-09-22T07:34:19.764Z,99.99
2022-09-22T07:35:19.703Z,99.99
2022-09-22T07:36:19.652Z,99.99
2022-09-22T07:37:19.604Z,99.99
2022-09-22T07:38:19.552Z,99.99
2022-09-22T07:39:19.506Z,99.99
2022-09-22T07:40:19.522Z,99.99
2022-09-22T07:41:19.414Z,99.99
2022-09-22T07:42:19.360Z,99.99
2022-09-22T07:43:19.317Z,99.99
2022-09-22T07:44:19.265Z,99.99
2022-09-22T07:45:19.220Z,99.99
2022-09-22T07:46:19.184Z,99.99
2022-09-22T07:47:19.122Z,99.99
2022-09-22T07:48:19.079Z,99.99
2022-09-22T07:49:19.034Z,99.99
2022-09-22T07:50:18.994Z,99.99
2022-09-22T07:51:18.931Z,99.99
2022-09-22T07:52:18.884Z,99.99
2022-09-22T07:53:18.836Z,99.99
2022-09-22T07:54:18.788Z,99.99
2022-09-22T07:55:18.828Z,99.99
2022-09-22T07:56:18.692Z,99.99
2022-09-22T07:57:18.648Z,99.99
2022-09-22T07:58:18.595Z,99.99
2022-09-22T07:59:18.552Z,99.99
2022-09-22T08:00:18.506Z,99.99
2022-09-22T08:01:18.456Z,99.99
2022-09-22T08:02:18.480Z,99.99
2022-09-22T08:03:18.360Z,99.99
2022-09-22T08:04:18.315Z,99.99
2022-09-22T08:05:18.266Z,99.99
2022-09-22T08:06:18.503Z,99.99
2022-09-22T08:07:18.172Z,99.99
2022-09-22T08:08:18.125Z,99.99
2022-09-22T08:09:18.077Z,99.99
2022-09-22T08:10:18.034Z,99.99
2022-09-22T08:11:17.988Z,99.99
2022-09-22T08:12:17.935Z,99.99
2022-09-22T08:13:17.891Z,99.99
2022-09-22T08:14:17.838Z,99.99
2022-09-22T08:15:17.794Z,99.99
2022-09-22T08:16:17.815Z,99.99
2022-09-22T08:17:17.700Z,99.99
2022-09-22T08:18:17.652Z,99.99
2022-09-22T08:19:17.606Z,99.99
2022-09-22T08:20:17.556Z,99.99
2022-09-22T08:21:17.515Z,99.99
2022-09-22T08:22:17.484Z,99.99
2022-09-22T08:23:17.417Z,99.99
2022-09-22T08:24:17.370Z,99.99
2022-09-22T08:25:17.324Z,99.99
2022-09-22T08:26:17.278Z,99.99
2022-09-22T08:27:17.233Z,99.99
2022-09-22T08:28:17.184Z,99.99
2022-09-22T08:29:17.137Z,99.99
2022-09-22T08:30:17.087Z,99.99
2022-09-22T08:31:17.086Z,99.99
2022-09-22T08:32:16.997Z,99.99
2022-09-22T08:33:16.951Z,99.99
2022-09-22T08:34:17.028Z,99.99
2022-09-22T08:35:16.860Z,99.99
2022-09-22T08:36:16.808Z,99.99
2022-09-22T08:37:16.765Z,99.99
2022-09-22T08:38:16.755Z,99.99
2022-09-22T08:39:16.687Z,99.99
2022-09-22T08:40:16.733Z,99.99
2022-09-22T08:41:16.580Z,99.99
2022-09-22T08:42:16.529Z,99.99
2022-09-22T08:43:16.485Z,99.99
2022-09-22T08:44:16.438Z,99.99
2022-09-22T08:45:16.394Z,99.99
2022-09-22T08:46:16.373Z,99.99
2022-09-22T08:47:16.299Z,99.99
2022-09-22T08:48:16.251Z,99.99
2022-09-22T08:49:16.206Z,99.99
2022-09-22T08:50:16.161Z,99.99
2022-09-22T08:51:16.118Z,99.90
2022-09-22T08:52:16.067Z,99.99
2022-09-22T08:53:16.023Z,99.99
2022-09-22T08:54:15.995Z,99.52
2022-09-22T08:55:15.930Z,98.47
2022-09-22T08:56:15.883Z,98.47
2022-09-22T08:57:15.842Z,99.14
2022-09-22T08:58:15.790Z,98.47
2022-09-22T08:59:15.748Z,97.95
2022-09-22T09:00:15.745Z,97.66
2022-09-22T09:01:15.698Z,97.08
2022-09-22T09:02:15.607Z,96.51
2022-09-22T09:03:15.658Z,96.51
2022-09-22T09:04:15.515Z,96.32
2022-09-22T09:05:15.471Z,96.42
2022-09-22T09:06:15.426Z,94.98
2022-09-22T09:07:15.381Z,94.50
2022-09-22T09:08:15.341Z,93.40
2022-09-22T09:09:15.288Z,91.01
2022-09-22T09:10:15.264Z,91.20
2022-09-22T09:11:15.235Z,91.01
2022-09-22T09:12:15.149Z,90.91
2022-09-22T09:13:15.105Z,92.16
2022-09-22T09:14:15.058Z,89.95
2022-09-22T09:15:15.016Z,88.90
2022-09-22T09:16:15.019Z,89.48
2022-09-22T09:17:14.923Z,90.19
2022-09-22T09:18:14.875Z,90.29
2022-09-22T09:19:14.835Z,89.52
2022-09-22T09:20:14.787Z,89.23
2022-09-22T09:21:14.743Z,88.95
2022-09-22T09:22:14.695Z,87.80
2022-09-22T09:23:14.649Z,85.88
2022-09-22T09:25:22.383Z,86.55
2022-09-22T09:26:14.552Z,87.46
2022-09-22T09:27:14.469Z,88.32
2022-09-22T09:28:14.424Z,88.23
2022-09-22T09:29:14.380Z,88.32
2022-09-22T09:30:14.339Z,88.03
2022-09-22T09:31:14.311Z,88.42
2022-09-22T09:32:14.243Z,86.79
2022-09-22T09:33:14.197Z,85.54
2022-09-22T09:34:14.152Z,85.64
2022-09-22T09:35:14.111Z,84.78
2022-09-22T09:36:14.064Z,84.44
2022-09-22T09:37:14.021Z,84.15
2022-09-22T09:38:13.971Z,82.62
2022-09-22T09:39:13.926Z,82.71
2022-09-22T09:40:13.949Z,83.00
2022-09-22T09:41:13.837Z,82.71
2022-09-22T09:42:13.808Z,82.90
2022-09-22T09:43:13.753Z,82.90
2022-09-22T09:44:16.851Z,83.29
2022-09-22T09:45:13.666Z,83.19
2022-09-22T09:46:13.677Z,83.48
2022-09-22T09:47:13.567Z,82.71
2022-09-22T09:48:13.531Z,83.95
2022-09-22T09:49:13.477Z,85.01
2022-09-22T09:50:13.431Z,85.25
2022-09-22T09:51:13.393Z,83.61
2022-09-22T09:52:13.344Z,81.89
2022-09-22T09:53:13.298Z,79.59
2022-09-22T09:54:16.913Z,79.21
2022-09-22T09:55:13.210Z,78.82
2022-09-22T09:56:13.164Z,78.53
2022-09-22T09:57:13.130Z,78.44
2022-09-22T09:58:13.091Z,78.92
2022-09-22T09:59:13.032Z,79.30
2022-09-22T10:00:12.991Z,78.53
2022-09-22T10:01:12.958Z,77.38
2022-09-22T10:02:12.896Z,77.00
2022-09-22T10:03:12.853Z,77.29
2022-09-22T10:04:12.808Z,78.15
2022-09-22T10:05:12.761Z,78.53
2022-09-22T10:06:12.715Z,78.05
2022-09-22T10:07:12.671Z,77.38
2022-09-22T10:08:12.628Z,77.13
2022-09-22T10:09:12.583Z,76.65
2022-09-22T10:10:12.539Z,77.33
2022-09-22T10:11:12.491Z,77.42
2022-09-22T10:12:12.450Z,76.56
2022-09-22T10:13:16.019Z,76.84
2022-09-22T10:14:12.379Z,77.04
2022-09-22T10:15:12.316Z,74.73
2022-09-22T10:16:12.318Z,75.02
2022-09-22T10:17:12.228Z,74.93
2022-09-22T10:18:12.187Z,75.60
2022-09-22T10:19:12.138Z,76.50
2022-09-22T10:20:12.092Z,77.33
2022-09-22T10:21:12.052Z,76.56
2022-09-22T10:22:12.005Z,76.12
2022-09-22T10:23:12.008Z,75.25
2022-09-22T10:24:11.915Z,75.92
2022-09-22T10:25:11.869Z,76.59
2022-09-22T10:26:11.829Z,76.40
2022-09-22T10:27:11.783Z,75.25
2022-09-22T10:28:11.738Z,74.87
2022-09-22T10:29:11.692Z,74.19
2022-09-22T10:52:42.152Z,72.95
2022-09-22T10:53:42.003Z,72.50
2022-09-22T10:54:41.954Z,72.41
2022-09-22T10:55:41.908Z,71.64
2022-09-22T10:56:41.866Z,72.12
2022-09-22T10:57:41.822Z,73.27
2022-09-22T10:58:41.776Z,74.62
2022-09-22T10:59:41.735Z,74.62
2022-09-22T11:00:41.685Z,72.31
2022-09-22T11:01:41.696Z,71.35
2022-09-22T11:02:41.604Z,70.39
2022-09-22T11:03:41.555Z,70.39
2022-09-22T11:04:41.606Z,71.25
2022-09-22T11:05:41.466Z,70.29
2022-09-22T11:06:41.420Z,71.35
2022-09-22T11:07:41.378Z,72.41
2022-09-22T11:08:41.350Z,71.55
2022-09-22T11:10:41.245Z,70.78
2022-09-22T11:11:41.200Z,69.72
2022-09-22T11:12:41.159Z,70.39
2022-09-22T11:13:41.111Z,70.39
2022-09-22T11:14:41.067Z,70.01
2022-09-22T11:15:41.108Z,68.95
2022-09-22T11:16:40.982Z,68.28
2022-09-22T11:17:45.234Z,68.57
2022-09-22T11:18:40.891Z,69.62
2022-09-22T11:19:40.848Z,70.10
2022-09-22T11:20:40.803Z,69.05
2022-09-22T11:21:40.759Z,68.18
2022-09-22T11:22:40.715Z,67.61
2022-09-22T11:23:40.670Z,68.08
2022-09-22T11:24:40.643Z,68.08
2022-09-22T11:25:40.581Z,67.70
2022-09-22T11:26:40.538Z,66.84
2022-09-22T11:27:40.495Z,67.41
2022-09-22T11:28:40.450Z,67.13
2022-09-22T11:29:40.407Z,66.74
2022-09-22T11:30:40.433Z,67.22
2022-09-22T11:31:40.317Z,69.24
2022-09-22T11:32:40.273Z,71.06
2022-09-22T11:33:40.229Z,69.72
2022-09-22T11:34:40.182Z,68.47
2022-09-22T11:35:40.147Z,67.99
2022-09-22T11:36:40.098Z,68.08
2022-09-22T11:37:40.063Z,67.90
2022-09-22T11:38:40.009Z,68.08
2022-09-22T11:39:39.963Z,67.70
2022-09-22T11:40:40.067Z,67.80
2022-09-22T11:41:39.879Z,67.13
2022-09-22T11:42:39.830Z,66.46
2022-09-22T11:43:39.794Z,67.03
2022-09-22T11:44:39.744Z,66.77
2022-09-22T11:45:39.699Z,67.80
2022-09-22T11:46:39.654Z,69.95
2022-09-22T11:47:39.613Z,71.10
2022-09-22T11:48:39.566Z,70.81
2022-09-22T11:49:39.522Z,69.37
2022-09-22T11:50:39.485Z,69.85
2022-09-22T11:51:39.434Z,69.56
2022-09-22T11:52:39.389Z,70.90
2022-09-22T11:53:39.346Z,68.51
2022-09-22T11:54:39.301Z,66.20
2022-09-22T11:55:39.259Z,65.62
2022-09-22T11:56:39.235Z,65.81
2022-09-22T12:04:45.619Z,64.12
2022-09-22T12:05:45.582Z,65.08
2022-09-22T12:09:17.135Z,70.30
2022-09-22T12:10:17.094Z,70.11
2022-09-22T12:11:17.051Z,67.13
2022-09-22T12:12:17.025Z,65.14
2022-09-22T12:13:16.961Z,64.37
2022-09-22T12:14:16.924Z,63.22
2022-09-22T12:15:16.879Z,62.54
2022-09-22T12:16:16.838Z,65.33
2022-09-22T12:17:20.000Z,66.42
2022-09-22T12:18:16.752Z,64.02
2022-09-22T12:19:16.724Z,63.67
2022-09-22T12:20:16.669Z,61.25
2022-09-22T12:21:16.626Z,62.25
2022-09-22T12:22:16.582Z,62.15
2022-09-22T12:23:16.541Z,64.21
2022-09-22T12:24:16.498Z,63.06
2022-09-22T12:25:21.171Z,62.22
2022-09-22T12:26:16.414Z,61.19
2022-09-22T12:27:16.372Z,59.67
2022-09-22T12:28:16.346Z,60.25
2022-09-22T12:29:16.285Z,59.02
2022-09-22T12:30:16.245Z,59.41
2022-09-22T12:42:20.033Z,56.84
2022-09-22T12:44:48.444Z,55.56
2022-09-22T12:45:48.410Z,55.56
2022-09-22T12:46:48.339Z,55.18
2022-09-22T12:47:48.302Z,56.43
2022-09-22T12:48:48.255Z,58.45
2022-09-22T12:49:48.217Z,57.68
2022-09-22T12:50:48.173Z,56.26
2022-09-22T13:15:20.340Z,59.08
2022-09-22T13:16:20.316Z,59.08
2022-09-22T13:17:20.239Z,60.04
2022-09-22T13:18:20.190Z,61.77
2022-09-22T13:19:20.149Z,61.19
2022-09-22T13:20:20.103Z,59.94
2022-09-22T13:21:20.063Z,60.42
2022-09-22T13:22:20.019Z,61.39
2022-09-22T13:23:19.975Z,62.35
2022-09-22T13:24:19.930Z,60.91
2022-09-22T13:25:19.888Z,62.35
2022-09-22T13:26:19.846Z,62.45
2022-09-22T13:27:19.800Z,62.32
2022-09-22T13:28:19.756Z,62.80
2022-09-22T13:29:19.722Z,61.84
2022-09-22T13:30:19.676Z,63.38
2022-09-22T13:31:19.668Z,63.67
2022-09-22T13:32:19.583Z,63.48
2022-09-22T13:33:19.537Z,63.57
2022-09-22T13:34:19.495Z,65.88
2022-09-22T13:35:19.462Z,67.13
2022-09-22T13:36:19.417Z,64.63
2022-09-22T13:37:19.363Z,63.28
2022-09-22T13:38:19.333Z,63.09
2022-09-22T13:39:19.279Z,63.18
2022-09-22T13:40:19.292Z,62.23
2022-09-22T13:41:19.187Z,62.03
2022-09-22T13:42:19.151Z,62.61
2022-09-22T13:43:19.104Z,63.18
2022-09-22T13:44:19.061Z,63.09
2022-09-22T13:45:19.015Z,62.90
2022-09-22T13:46:19.043Z,63.09
2022-09-22T13:47:18.947Z,63.67
2022-09-22T13:48:18.885Z,63.57
2022-09-22T13:49:18.840Z,65.50
2022-09-22T13:50:21.612Z,63.73
2022-09-22T13:51:18.759Z,62.00
2022-09-22T13:52:18.712Z,63.06
2022-09-22T13:53:18.684Z,63.38
2022-09-22T13:54:18.623Z,63.25
2022-09-22T13:55:18.586Z,63.92
2022-09-22T13:56:21.740Z,63.83
2022-09-22T13:57:18.490Z,62.19
2022-09-22T13:58:18.450Z,61.43
2022-09-22T13:59:18.411Z,63.35
2022-09-22T14:00:18.361Z,63.54
2022-09-22T14:01:18.357Z,62.38
2022-09-22T14:02:18.400Z,63.45
2022-09-22T14:03:18.251Z,63.25
2022-09-22T14:04:18.186Z,63.83
2022-09-22T14:05:18.139Z,64.98
2022-09-22T14:06:18.100Z,65.46
2022-09-22T14:07:18.054Z,65.94
2022-09-22T14:08:20.183Z,64.50
2022-09-22T14:09:17.968Z,63.64
2022-09-22T14:10:17.924Z,64.69
2022-09-22T14:11:17.879Z,65.84
2022-09-22T14:12:17.841Z,65.66
2022-09-22T14:13:17.789Z,65.08
2022-09-22T14:14:17.747Z,65.46
2022-09-22T14:15:17.718Z,64.69
2022-09-22T14:16:17.737Z,64.60
2022-09-22T14:17:17.615Z,64.60
2022-09-22T14:18:17.574Z,64.40
2022-09-22T14:19:17.552Z,63.64
2022-09-22T14:20:17.498Z,63.25
2022-09-22T14:21:17.440Z,65.46
2022-09-22T14:22:17.398Z,64.22
2022-09-22T14:23:17.357Z,63.25
2022-09-22T14:24:17.309Z,63.83